Bridgewater, Maine
Current Conditions -  °F | °C
As of 12:35 PM on Saturday 25 Oct 2014 (Local Time) from KPQI Reporting Station
Overcast Overcast  
Wind Chill:   Ceiling: 1300
Heat Index:   Visibility: 5mi
Dew Point:   Wind: 3mph
Humidity: 81%   Direction: 360°N
Pressure: 29.59"   Gusts: NA
Location:  46.43°N, 67.84°W
Report Text: KPQI 251635Z AUTO 36003KT 5SM BKN013 OVC018 06/03 A2959 RMK AO1
Loading
Personal Weather Stations






























Interactive Weather Map
Tropical Storm Tracking
New forecast layout! Learn more

10-Day Weather Forecast

Advertisements
Track Severe Weather on mobile